Time,TemperatureF,DewpointF,PressureIn,WindDirection,WindDirectionDegrees,WindSpeedMPH,WindSpeedGustMPH,Humidity,HourlyPrecipIn,Conditions,Clouds,dailyrainin,SoftwareType,DateUTC
2013-03-16 00:00:00,47.7,40.9,29.91,NW,314,0.0,5.0,77,0.00,,,0.00,WUHU216DAVISVP2,2013-03-16 04:00:00,
2013-03-16 00:05:00,47.0,40.5,29.90,East,85,1.0,3.0,78,0.00,,,0.00,WUHU216DAVISVP2,2013-03-16 04:05:00,
2013-03-16 00:10:00,46.8,41.0,29.90,East,86,0.0,3.0,80,0.00,,,0.00,WUHU216DAVISVP2,2013-03-16 04:10:00,
2013-03-16 00:15:00,46.5,41.3,29.91,East,86,0.0,2.0,82,0.00,,,0.00,WUHU216DAVISVP2,2013-03-16 04:15:00,
2013-03-16 00:20:00,46.0,41.4,29.91,East,86,1.0,1.0,84,0.00,,,0.00,WUHU216DAVISVP2,2013-03-16 04:20:00,
2013-03-16 00:25:00,45.6,41.6,29.90,East,86,1.0,1.0,86,0.00,,,0.00,WUHU216DAVISVP2,2013-03-16 04:25:00,
2013-03-16 00:30:00,45.4,41.7,29.90,East,86,0.0,1.0,87,0.01,,,0.01,WUHU216DAVISVP2,2013-03-16 04:30:00,
2013-03-16 00:35:00,45.0,41.6,29.90,East,86,1.0,1.0,88,0.01,,,0.01,WUHU216DAVISVP2,2013-03-16 04:35:00,
2013-03-16 00:40:00,44.7,41.9,29.90,East,86,0.0,1.0,90,0.01,,,0.01,WUHU216DAVISVP2,2013-03-16 04:40:00,
2013-03-16 00:45:00,44.5,41.7,29.89,NNW,340,1.0,1.0,90,0.01,,,0.01,WUHU216DAVISVP2,2013-03-16 04:45:00,
2013-03-16 00:50:00,44.1,41.3,29.89,NNW,340,0.0,1.0,90,0.01,,,0.01,WUHU216DAVISVP2,2013-03-16 04:50:00,
2013-03-16 00:55:00,44.1,41.6,29.89,SW,233,1.0,1.0,91,0.01,,,0.01,WUHU216DAVISVP2,2013-03-16 04:55:00,
2013-03-16 01:00:00,44.0,41.5,29.89,WSW,239,1.0,1.0,91,0.01,,,0.01,WUHU216DAVISVP2,2013-03-16 05:00:00,
2013-03-16 01:05:00,43.8,41.3,29.89,WSW,239,0.0,1.0,91,0.01,,,0.01,WUHU216DAVISVP2,2013-03-16 05:05:00,
2013-03-16 01:10:00,43.6,41.1,29.88,WSW,239,1.0,1.0,91,0.01,,,0.01,WUHU216DAVISVP2,2013-03-16 05:10:00,
2013-03-16 01:15:00,43.3,40.8,29.88,WSW,239,0.0,1.0,91,0.01,,,0.01,WUHU216DAVISVP2,2013-03-16 05:15:00,
2013-03-16 01:20:00,43.3,41.1,29.87,WSW,237,0.0,1.0,92,0.01,,,0.01,WUHU216DAVISVP2,2013-03-16 05:20:00,
2013-03-16 01:25:00,43.2,41.0,29.86,West,272,1.0,2.0,92,0.01,,,0.01,WUHU216DAVISVP2,2013-03-16 05:25:00,
2013-03-16 01:30:00,42.9,40.7,29.86,West,267,1.0,2.0,92,0.00,,,0.01,WUHU216DAVISVP2,2013-03-16 05:30:00,
2013-03-16 01:35:00,43.0,40.8,29.86,SSW,212,0.0,2.0,92,0.00,,,0.01,WUHU216DAVISVP2,2013-03-16 05:35:00,
2013-03-16 01:40:00,43.1,41.2,29.86,SSW,212,0.0,2.0,93,0.00,,,0.01,WUHU216DAVISVP2,2013-03-16 05:40:00,
2013-03-16 01:45:00,43.1,41.2,29.86,SSW,212,0.0,1.0,93,0.00,,,0.01,WUHU216DAVISVP2,2013-03-16 05:45:00,
2013-03-16 01:51:00,43.0,41.1,29.86,SSW,212,1.0,1.0,93,0.00,,,0.01,WUHU216DAVISVP2,2013-03-16 05:51:00,
2013-03-16 01:56:00,42.5,40.3,29.86,East,93,1.0,1.0,92,0.00,,,0.01,WUHU216DAVISVP2,2013-03-16 05:56:00,
2013-03-16 02:01:00,42.7,40.8,29.85,WSW,240,1.0,1.0,93,0.00,,,0.01,WUHU216DAVISVP2,2013-03-16 06:01:00,
2013-03-16 02:06:00,42.8,40.9,29.85,SSE,151,1.0,1.0,93,0.00,,,0.01,WUHU216DAVISVP2,2013-03-16 06:06:00,
2013-03-16 02:11:00,42.9,41.0,29.84,SSW,207,0.0,1.0,93,0.00,,,0.01,WUHU216DAVISVP2,2013-03-16 06:11:00,
2013-03-16 02:16:00,42.7,40.8,29.85,WNW,283,1.0,2.0,93,0.00,,,0.01,WUHU216DAVISVP2,2013-03-16 06:16:00,
2013-03-16 02:21:00,42.6,40.7,29.84,WNW,283,1.0,2.0,93,0.00,,,0.01,WUHU216DAVISVP2,2013-03-16 06:21:00,
2013-03-16 02:26:00,42.5,40.6,29.84,WNW,282,0.0,2.0,93,0.00,,,0.01,WUHU216DAVISVP2,2013-03-16 06:26:00,
2013-03-16 02:31:00,42.4,40.5,29.85,WNW,283,1.0,2.0,93,0.00,,,0.01,WUHU216DAVISVP2,2013-03-16 06:31:00,
2013-03-16 02:36:00,42.0,40.1,29.84,WNW,283,0.0,1.0,93,0.00,,,0.01,WUHU216DAVISVP2,2013-03-16 06:36:00,
2013-03-16 02:41:00,42.0,40.1,29.85,WNW,282,0.0,1.0,93,0.00,,,0.01,WUHU216DAVISVP2,2013-03-16 06:41:00,
2013-03-16 02:46:00,42.0,40.1,29.85,WNW,283,1.0,1.0,93,0.00,,,0.01,WUHU216DAVISVP2,2013-03-16 06:46:00,
2013-03-16 02:52:00,41.6,39.7,29.84,WNW,282,0.0,1.0,93,0.00,,,0.01,WUHU216DAVISVP2,2013-03-16 06:52:00,
2013-03-16 02:57:00,41.7,39.8,29.84,ESE,105,1.0,1.0,93,0.00,,,0.01,WUHU216DAVISVP2,2013-03-16 06:57:00,
2013-03-16 03:02:00,41.9,40.0,29.83,ESE,105,0.0,1.0,93,0.00,,,0.01,WUHU216DAVISVP2,2013-03-16 07:02:00,
2013-03-16 03:07:00,42.0,40.1,29.83,ESE,106,1.0,1.0,93,0.00,,,0.01,WUHU216DAVISVP2,2013-03-16 07:07:00,
2013-03-16 03:12:00,41.9,40.0,29.82,ESE,105,0.0,1.0,93,0.00,,,0.01,WUHU216DAVISVP2,2013-03-16 07:12:00,
2013-03-16 03:17:00,41.5,39.6,29.81,ESE,105,0.0,1.0,93,0.00,,,0.01,WUHU216DAVISVP2,2013-03-16 07:17:00,
2013-03-16 03:22:00,41.2,39.3,29.81,ESE,105,0.0,1.0,93,0.00,,,0.01,WUHU216DAVISVP2,2013-03-16 07:22:00,
2013-03-16 03:27:00,41.2,39.3,29.80,ESE,105,1.0,1.0,93,0.00,,,0.01,WUHU216DAVISVP2,2013-03-16 07:27:00,
2013-03-16 03:32:00,41.2,39.3,29.80,ESE,105,0.0,1.0,93,0.00,,,0.01,WUHU216DAVISVP2,2013-03-16 07:32:00,
2013-03-16 03:37:00,40.6,38.7,29.80,ESE,105,0.0,1.0,93,0.00,,,0.01,WUHU216DAVISVP2,2013-03-16 07:37:00,
2013-03-16 03:42:00,39.9,38.0,29.80,ESE,105,0.0,1.0,93,0.00,,,0.01,WUHU216DAVISVP2,2013-03-16 07:42:00,
2013-03-16 03:47:00,39.8,37.9,29.80,ESE,105,0.0,0.0,93,0.00,,,0.01,WUHU216DAVISVP2,2013-03-16 07:47:00,
2013-03-16 03:52:00,39.7,37.8,29.79,ESE,105,0.0,0.0,93,0.00,,,0.01,WUHU216DAVISVP2,2013-03-16 07:52:00,
2013-03-16 03:57:00,40.1,38.2,29.78,ESE,105,0.0,0.0,93,0.00,,,0.01,WUHU216DAVISVP2,2013-03-16 07:57:00,
2013-03-16 04:02:00,40.7,39.1,29.78,ESE,105,0.0,0.0,94,0.00,,,0.01,WUHU216DAVISVP2,2013-03-16 08:02:00,
2013-03-16 04:07:00,40.8,39.2,29.78,ESE,105,0.0,0.0,94,0.00,,,0.01,WUHU216DAVISVP2,2013-03-16 08:07:00,
2013-03-16 04:12:00,40.9,39.3,29.78,ESE,105,0.0,0.0,94,0.00,,,0.01,WUHU216DAVISVP2,2013-03-16 08:12:00,
2013-03-16 04:17:00,40.6,39.0,29.78,ESE,104,0.0,1.0,94,0.00,,,0.01,WUHU216DAVISVP2,2013-03-16 08:17:00,
2013-03-16 04:22:00,40.2,38.3,29.78,ESE,106,0.0,1.0,93,0.00,,,0.01,WUHU216DAVISVP2,2013-03-16 08:22:00,
2013-03-16 04:27:00,40.2,38.6,29.79,ESE,105,0.0,1.0,94,0.00,,,0.01,WUHU216DAVISVP2,2013-03-16 08:27:00,
2013-03-16 04:32:00,40.3,38.7,29.79,ESE,105,0.0,1.0,94,0.00,,,0.01,WUHU216DAVISVP2,2013-03-16 08:32:00,
2013-03-16 04:37:00,40.2,38.6,29.79,ESE,105,0.0,0.0,94,0.00,,,0.01,WUHU216DAVISVP2,2013-03-16 08:37:00,
2013-03-16 04:42:00,40.1,38.5,29.79,ESE,105,0.0,0.0,94,0.00,,,0.01,WUHU216DAVISVP2,2013-03-16 08:42:00,
2013-03-16 04:47:00,40.3,38.7,29.79,ESE,105,0.0,0.0,94,0.01,,,0.02,WUHU216DAVISVP2,2013-03-16 08:47:00,
2013-03-16 04:52:00,40.5,38.9,29.79,ESE,105,0.0,1.0,94,0.02,,,0.03,WUHU216DAVISVP2,2013-03-16 08:52:00,
2013-03-16 04:57:00,40.9,39.3,29.79,SE,125,1.0,1.0,94,0.03,,,0.04,WUHU216DAVISVP2,2013-03-16 08:57:00,
2013-03-16 05:02:00,41.1,39.5,29.80,WNW,295,1.0,1.0,94,0.04,,,0.05,WUHU216DAVISVP2,2013-03-16 09:02:00,
2013-03-16 05:07:00,40.7,39.1,29.80,WNW,295,0.0,1.0,94,0.05,,,0.06,WUHU216DAVISVP2,2013-03-16 09:07:00,
2013-03-16 05:12:00,40.6,39.0,29.81,WNW,295,0.0,1.0,94,0.06,,,0.07,WUHU216DAVISVP2,2013-03-16 09:12:00,
2013-03-16 05:17:00,40.8,39.2,29.81,WNW,297,1.0,1.0,94,0.08,,,0.09,WUHU216DAVISVP2,2013-03-16 09:17:00,
2013-03-16 05:22:00,41.1,39.5,29.80,WNW,295,0.0,1.0,94,0.13,,,0.14,WUHU216DAVISVP2,2013-03-16 09:22:00,
2013-03-16 05:27:00,41.1,39.5,29.80,WNW,296,0.0,1.0,94,0.14,,,0.15,WUHU216DAVISVP2,2013-03-16 09:27:00,
2013-03-16 05:32:00,41.2,39.6,29.78,ESE,110,0.0,2.0,94,0.15,,,0.16,WUHU216DAVISVP2,2013-03-16 09:32:00,
2013-03-16 05:37:00,41.4,39.8,29.78,ESE,116,1.2,2.0,94,0.15,,,0.16,WUHU216DAVISVP2,2013-03-16 09:37:00,
2013-03-16 05:42:00,41.4,39.8,29.77,ESE,107,1.8,3.0,94,0.15,,,0.16,WUHU216DAVISVP2,2013-03-16 09:42:00,
2013-03-16 05:47:00,41.5,39.9,29.77,ESE,105,1.0,3.0,94,0.14,,,0.16,WUHU216DAVISVP2,2013-03-16 09:47:00,
2013-03-16 05:52:00,41.5,39.9,29.78,ESE,106,1.0,2.0,94,0.13,,,0.16,WUHU216DAVISVP2,2013-03-16 09:52:00,
2013-03-16 05:57:00,41.4,39.8,29.77,ESE,105,1.0,2.0,94,0.12,,,0.16,WUHU216DAVISVP2,2013-03-16 09:57:00,
2013-03-16 06:02:00,41.4,39.8,29.77,ESE,113,1.0,1.0,94,0.11,,,0.16,WUHU216DAVISVP2,2013-03-16 10:02:00,
2013-03-16 06:07:00,41.2,39.6,29.77,ESE,113,1.0,1.0,94,0.10,,,0.16,WUHU216DAVISVP2,2013-03-16 10:07:00,
2013-03-16 06:12:00,40.7,39.1,29.76,East,92,1.1,2.0,94,0.08,,,0.16,WUHU216DAVISVP2,2013-03-16 10:12:00,
2013-03-16 06:17:00,40.8,39.2,29.76,East,86,1.0,2.0,94,0.07,,,0.16,WUHU216DAVISVP2,2013-03-16 10:17:00,
2013-03-16 06:22:00,41.0,39.4,29.76,East,86,1.0,1.0,94,0.02,,,0.16,WUHU216DAVISVP2,2013-03-16 10:22:00,
2013-03-16 06:27:00,41.1,39.5,29.75,East,86,0.0,1.0,94,0.00,,,0.16,WUHU216DAVISVP2,2013-03-16 10:27:00,
2013-03-16 06:32:00,40.9,39.3,29.75,East,86,0.0,1.0,94,0.00,,,0.16,WUHU216DAVISVP2,2013-03-16 10:32:00,
2013-03-16 06:37:00,40.7,39.1,29.75,East,86,0.0,1.0,94,0.00,,,0.16,WUHU216DAVISVP2,2013-03-16 10:37:00,
2013-03-16 06:42:00,40.6,39.0,29.75,East,86,0.0,1.0,94,0.00,,,0.16,WUHU216DAVISVP2,2013-03-16 10:42:00,
2013-03-16 06:47:00,40.5,38.9,29.75,East,86,0.0,0.0,94,0.00,,,0.16,WUHU216DAVISVP2,2013-03-16 10:47:00,
2013-03-16 06:52:00,40.5,38.9,29.75,East,86,1.0,1.0,94,0.00,,,0.16,WUHU216DAVISVP2,2013-03-16 10:52:00,
2013-03-16 06:57:00,40.5,38.9,29.75,East,86,0.0,1.0,94,0.00,,,0.16,WUHU216DAVISVP2,2013-03-16 10:57:00,
2013-03-16 07:02:00,40.4,38.8,29.75,East,86,1.0,1.0,94,0.00,,,0.16,WUHU216DAVISVP2,2013-03-16 11:02:00,
2013-03-16 07:07:00,40.0,38.4,29.75,East,86,1.0,1.0,94,0.00,,,0.16,WUHU216DAVISVP2,2013-03-16 11:07:00,
2013-03-16 07:13:00,40.1,38.5,29.74,East,86,0.0,1.0,94,0.00,,,0.16,WUHU216DAVISVP2,2013-03-16 11:13:00,
2013-03-16 07:18:00,40.5,38.9,29.74,East,86,1.0,1.0,94,0.00,,,0.16,WUHU216DAVISVP2,2013-03-16 11:18:00,
2013-03-16 07:23:00,40.7,39.1,29.74,East,86,0.0,1.0,94,0.00,,,0.16,WUHU216DAVISVP2,2013-03-16 11:23:00,
2013-03-16 07:28:00,40.7,39.1,29.74,East,86,0.0,1.0,94,0.00,,,0.16,WUHU216DAVISVP2,2013-03-16 11:28:00,
2013-03-16 07:32:00,41.1,39.5,29.74,ESE,105,1.0,1.0,94,0.00,,,0.16,WUHU216DAVISVP2,2013-03-16 11:32:00,
2013-03-16 07:38:00,41.3,39.7,29.74,ESE,105,1.0,1.0,94,0.00,,,0.16,WUHU216DAVISVP2,2013-03-16 11:38:00,
2013-03-16 07:43:00,41.3,39.7,29.74,South,177,0.0,1.0,94,0.00,,,0.16,WUHU216DAVISVP2,2013-03-16 11:43:00,
2013-03-16 07:48:00,41.5,39.9,29.74,South,178,0.0,1.0,94,0.00,,,0.16,WUHU216DAVISVP2,2013-03-16 11:48:00,
2013-03-16 07:53:00,41.5,39.9,29.74,South,177,0.0,1.0,94,0.00,,,0.16,WUHU216DAVISVP2,2013-03-16 11:53:00,
2013-03-16 07:58:00,41.6,40.0,29.74,South,178,0.0,1.0,94,0.00,,,0.16,WUHU216DAVISVP2,2013-03-16 11:58:00,
2013-03-16 08:03:00,41.6,40.0,29.74,SW,232,1.0,1.0,94,0.00,,,0.16,WUHU216DAVISVP2,2013-03-16 12:03:00,
2013-03-16 08:08:00,41.6,40.0,29.74,SW,232,1.0,1.0,94,0.00,,,0.16,WUHU216DAVISVP2,2013-03-16 12:08:00,
2013-03-16 08:13:00,41.7,40.1,29.73,SW,232,0.0,1.0,94,0.00,,,0.16,WUHU216DAVISVP2,2013-03-16 12:13:00,
2013-03-16 08:18:00,41.7,40.1,29.73,SW,232,0.0,1.0,94,0.00,,,0.16,WUHU216DAVISVP2,2013-03-16 12:18:00,
2013-03-16 08:23:00,41.9,40.3,29.73,SW,232,0.0,0.0,94,0.00,,,0.16,WUHU216DAVISVP2,2013-03-16 12:23:00,
2013-03-16 08:28:00,42.0,40.4,29.73,SW,232,0.0,0.0,94,0.00,,,0.16,WUHU216DAVISVP2,2013-03-16 12:28:00,
2013-03-16 08:33:00,42.2,40.6,29.73,SW,232,0.0,0.0,94,0.00,,,0.16,WUHU216DAVISVP2,2013-03-16 12:33:00,
2013-03-16 08:38:00,42.4,40.8,29.72,SW,232,0.0,0.0,94,0.00,,,0.16,WUHU216DAVISVP2,2013-03-16 12:38:00,
2013-03-16 08:43:00,42.5,40.9,29.72,SW,232,0.0,0.0,94,0.00,,,0.16,WUHU216DAVISVP2,2013-03-16 12:43:00,
2013-03-16 08:48:00,42.7,41.0,29.72,SW,232,0.0,0.0,94,0.00,,,0.16,WUHU216DAVISVP2,2013-03-16 12:48:00,
2013-03-16 08:53:00,42.9,41.2,29.72,SW,232,0.0,1.0,94,0.00,,,0.16,WUHU216DAVISVP2,2013-03-16 12:53:00,
2013-03-16 08:58:00,43.2,41.6,29.72,SW,232,0.0,1.0,94,0.00,,,0.16,WUHU216DAVISVP2,2013-03-16 12:58:00,
2013-03-16 09:03:00,43.3,41.7,29.71,SW,232,0.0,1.0,94,0.00,,,0.16,WUHU216DAVISVP2,2013-03-16 13:03:00,
2013-03-16 09:08:00,43.5,41.9,29.71,SW,232,0.0,1.0,94,0.00,,,0.16,WUHU216DAVISVP2,2013-03-16 13:08:00,
2013-03-16 09:13:00,43.6,42.0,29.72,SW,232,1.0,1.0,94,0.00,,,0.16,WUHU216DAVISVP2,2013-03-16 13:13:00,
2013-03-16 09:18:00,43.8,42.1,29.71,SW,232,0.0,1.0,94,0.00,,,0.16,WUHU216DAVISVP2,2013-03-16 13:18:00,
2013-03-16 09:23:00,43.9,42.2,29.71,SW,232,0.0,1.0,94,0.00,,,0.16,WUHU216DAVISVP2,2013-03-16 13:23:00,
2013-03-16 09:28:00,44.2,42.5,29.71,SW,232,1.0,1.0,94,0.00,,,0.16,WUHU216DAVISVP2,2013-03-16 13:28:00,
2013-03-16 09:33:00,44.3,42.6,29.71,SW,233,0.0,1.0,94,0.00,,,0.16,WUHU216DAVISVP2,2013-03-16 13:33:00,
2013-03-16 09:38:00,44.5,42.8,29.71,ESE,122,0.0,1.0,94,0.00,,,0.16,WUHU216DAVISVP2,2013-03-16 13:38:00,
2013-03-16 09:43:00,44.5,42.8,29.71,ESE,122,1.0,1.0,94,0.00,,,0.16,WUHU216DAVISVP2,2013-03-16 13:43:00,
2013-03-16 09:48:00,44.7,43.0,29.71,ESE,121,1.0,1.0,94,0.00,,,0.16,WUHU216DAVISVP2,2013-03-16 13:48:00,
2013-03-16 09:53:00,44.9,43.2,29.71,ESE,121,1.0,1.0,94,0.00,,,0.16,WUHU216DAVISVP2,2013-03-16 13:53:00,
2013-03-16 09:58:00,44.9,43.2,29.71,WNW,288,1.3,2.0,94,0.00,,,0.16,WUHU216DAVISVP2,2013-03-16 13:58:00,
2013-03-16 10:03:00,45.1,43.4,29.70,ESE,117,0.0,2.0,94,0.00,,,0.16,WUHU216DAVISVP2,2013-03-16 14:03:00,
2013-03-16 10:08:00,45.2,43.5,29.70,ESE,117,0.0,2.0,94,0.00,,,0.16,WUHU216DAVISVP2,2013-03-16 14:08:00,
2013-03-16 10:13:00,45.5,43.8,29.70,NW,324,2.0,2.0,94,0.00,,,0.16,WUHU216DAVISVP2,2013-03-16 14:13:00,
2013-03-16 10:18:00,45.7,44.0,29.70,NW,323,0.0,2.0,94,0.00,,,0.16,WUHU216DAVISVP2,2013-03-16 14:18:00,
2013-03-16 10:23:00,45.9,44.3,29.70,WNW,297,2.0,2.0,94,0.00,,,0.16,WUHU216DAVISVP2,2013-03-16 14:23:00,
2013-03-16 10:28:00,46.0,44.4,29.70,WNW,298,0.0,2.0,94,0.00,,,0.16,WUHU216DAVISVP2,2013-03-16 14:28:00,
2013-03-16 10:33:00,46.3,44.7,29.69,WNW,298,0.0,2.0,94,0.00,,,0.16,WUHU216DAVISVP2,2013-03-16 14:33:00,
2013-03-16 10:38:00,46.6,45.0,29.70,West,259,1.0,2.0,94,0.00,,,0.16,WUHU216DAVISVP2,2013-03-16 14:38:00,
2013-03-16 10:43:00,46.5,44.8,29.70,ESE,105,1.1,2.0,94,0.00,,,0.16,WUHU216DAVISVP2,2013-03-16 14:43:00,
2013-03-16 10:48:00,46.8,45.1,29.69,East,88,1.3,2.0,94,0.01,,,0.17,WUHU216DAVISVP2,2013-03-16 14:48:00,
2013-03-16 10:53:00,48.0,46.3,29.70,SW,228,2.0,2.0,94,0.02,,,0.18,WUHU216DAVISVP2,2013-03-16 14:53:00,
2013-03-16 10:58:00,48.2,46.2,29.69,ENE,78,1.6,2.0,93,0.02,,,0.18,WUHU216DAVISVP2,2013-03-16 14:58:00,
2013-03-16 11:03:00,48.9,47.2,29.68,NNE,14,1.0,2.0,94,0.02,,,0.18,WUHU216DAVISVP2,2013-03-16 15:03:00,
2013-03-16 11:08:00,49.7,48.0,29.69,NW,314,1.0,2.0,94,0.02,,,0.18,WUHU216DAVISVP2,2013-03-16 15:08:00,
2013-03-16 11:13:00,50.3,48.6,29.70,NW,314,0.0,2.0,94,0.02,,,0.18,WUHU216DAVISVP2,2013-03-16 15:13:00,
2013-03-16 11:18:00,50.7,48.7,29.70,NE,50,1.4,2.0,93,0.02,,,0.18,WUHU216DAVISVP2,2013-03-16 15:18:00,
2013-03-16 11:23:00,51.2,48.6,29.68,SE,140,1.6,3.0,91,0.02,,,0.18,WUHU216DAVISVP2,2013-03-16 15:23:00,
2013-03-16 11:28:00,51.3,48.7,29.66,South,190,1.0,3.0,91,0.03,,,0.19,WUHU216DAVISVP2,2013-03-16 15:28:00,
2013-03-16 11:33:00,50.9,48.4,29.66,WSW,245,1.0,2.0,91,0.03,,,0.19,WUHU216DAVISVP2,2013-03-16 15:33:00,
2013-03-16 11:38:00,50.6,48.4,29.66,WNW,282,1.0,2.0,92,0.03,,,0.19,WUHU216DAVISVP2,2013-03-16 15:38:00,
2013-03-16 11:43:00,50.4,48.5,29.67,NE,56,1.0,2.0,93,0.03,,,0.19,WUHU216DAVISVP2,2013-03-16 15:43:00,
2013-03-16 11:48:00,50.4,48.4,29.68,East,88,1.1,2.0,93,0.02,,,0.19,WUHU216DAVISVP2,2013-03-16 15:48:00,
2013-03-16 11:53:00,50.5,48.8,29.66,SE,128,1.4,2.0,94,0.02,,,0.20,WUHU216DAVISVP2,2013-03-16 15:53:00,
2013-03-16 11:58:00,50.6,48.9,29.65,NW,309,2.0,2.0,94,0.02,,,0.20,WUHU216DAVISVP2,2013-03-16 15:58:00,
2013-03-16 12:03:00,50.4,48.7,29.66,WSW,249,1.1,3.0,94,0.03,,,0.21,WUHU216DAVISVP2,2013-03-16 16:03:00,
2013-03-16 12:08:00,50.4,48.7,29.64,SE,125,1.3,3.0,94,0.04,,,0.22,WUHU216DAVISVP2,2013-03-16 16:08:00,
2013-03-16 12:13:00,50.5,48.8,29.65,WNW,303,1.6,3.0,94,0.04,,,0.22,WUHU216DAVISVP2,2013-03-16 16:13:00,
2013-03-16 12:18:00,50.6,48.9,29.66,NNW,328,1.0,3.0,94,0.04,,,0.22,WUHU216DAVISVP2,2013-03-16 16:18:00,
2013-03-16 12:23:00,50.8,49.1,29.67,ENE,76,1.8,3.0,94,0.05,,,0.23,WUHU216DAVISVP2,2013-03-16 16:23:00,
2013-03-16 12:28:00,51.2,49.5,29.65,NE,36,1.2,3.0,94,0.04,,,0.23,WUHU216DAVISVP2,2013-03-16 16:28:00,
2013-03-16 12:33:00,51.9,50.2,29.65,West,268,1.0,3.0,94,0.04,,,0.23,WUHU216DAVISVP2,2013-03-16 16:33:00,
2013-03-16 12:38:00,52.4,50.7,29.65,NW,315,1.0,3.0,94,0.04,,,0.23,WUHU216DAVISVP2,2013-03-16 16:38:00,
2013-03-16 12:43:00,52.8,51.1,29.65,NW,319,1.0,2.0,94,0.04,,,0.23,WUHU216DAVISVP2,2013-03-16 16:43:00,
2013-03-16 12:48:00,52.9,51.2,29.65,ENE,71,1.1,2.0,94,0.04,,,0.23,WUHU216DAVISVP2,2013-03-16 16:48:00,
2013-03-16 12:53:00,53.0,51.3,29.65,SSW,213,1.3,2.0,94,0.03,,,0.23,WUHU216DAVISVP2,2013-03-16 16:53:00,
2013-03-16 12:58:00,53.0,51.0,29.65,South,190,1.0,2.0,93,0.03,,,0.23,WUHU216DAVISVP2,2013-03-16 16:58:00,
2013-03-16 13:03:00,53.2,51.5,29.66,SE,146,1.0,2.0,94,0.02,,,0.23,WUHU216DAVISVP2,2013-03-16 17:03:00,
2013-03-16 13:08:00,53.2,51.5,29.66,SE,142,1.0,2.0,94,0.01,,,0.23,WUHU216DAVISVP2,2013-03-16 17:08:00,
2013-03-16 13:13:00,53.4,51.7,29.65,West,271,1.0,1.0,94,0.02,,,0.24,WUHU216DAVISVP2,2013-03-16 17:13:00,
2013-03-16 13:18:00,53.6,51.9,29.64,West,270,1.0,1.0,94,0.02,,,0.24,WUHU216DAVISVP2,2013-03-16 17:18:00,
2013-03-16 13:23:00,53.8,52.1,29.65,WNW,302,2.0,2.0,94,0.01,,,0.24,WUHU216DAVISVP2,2013-03-16 17:23:00,
2013-03-16 13:28:00,53.8,52.1,29.66,North,0,1.2,2.0,94,0.01,,,0.24,WUHU216DAVISVP2,2013-03-16 17:28:00,
2013-03-16 13:33:00,53.7,52.0,29.66,SSE,158,1.1,2.0,94,0.01,,,0.24,WUHU216DAVISVP2,2013-03-16 17:33:00,
2013-03-16 13:38:00,53.7,51.7,29.66,SE,130,1.0,2.0,93,0.01,,,0.24,WUHU216DAVISVP2,2013-03-16 17:38:00,
2013-03-16 13:43:00,53.7,52.0,29.66,SE,131,1.0,2.0,94,0.01,,,0.24,WUHU216DAVISVP2,2013-03-16 17:43:00,
2013-03-16 13:48:00,53.7,52.0,29.66,SE,131,1.0,2.0,94,0.01,,,0.24,WUHU216DAVISVP2,2013-03-16 17:48:00,
2013-03-16 13:53:00,53.9,52.2,29.65,SW,231,1.0,1.0,94,0.01,,,0.24,WUHU216DAVISVP2,2013-03-16 17:53:00,
2013-03-16 13:58:00,53.9,52.2,29.66,West,269,1.0,2.0,94,0.01,,,0.24,WUHU216DAVISVP2,2013-03-16 17:58:00,
2013-03-16 14:03:00,53.8,52.1,29.65,ESE,113,1.3,2.0,94,0.02,,,0.25,WUHU216DAVISVP2,2013-03-16 18:03:00,
2013-03-16 14:08:00,53.8,52.1,29.63,ESE,113,2.5,5.0,94,0.03,,,0.26,WUHU216DAVISVP2,2013-03-16 18:08:00,
2013-03-16 14:13:00,54.1,52.1,29.64,NW,311,5.5,9.0,93,0.02,,,0.26,WUHU216DAVISVP2,2013-03-16 18:13:00,
2013-03-16 14:18:00,54.1,52.1,29.64,NNE,29,2.3,9.0,93,0.03,,,0.27,WUHU216DAVISVP2,2013-03-16 18:18:00,
2013-03-16 14:23:00,54.2,52.2,29.64,WNW,293,1.0,9.0,93,0.03,,,0.27,WUHU216DAVISVP2,2013-03-16 18:23:00,
2013-03-16 14:28:00,54.7,52.4,29.65,North,8,1.7,9.0,92,0.03,,,0.27,WUHU216DAVISVP2,2013-03-16 18:28:00,
2013-03-16 14:33:00,55.4,52.8,29.65,NNE,26,2.0,5.0,91,0.04,,,0.28,WUHU216DAVISVP2,2013-03-16 18:33:00,
2013-03-16 14:38:00,55.8,52.9,29.66,West,275,1.1,5.0,90,0.05,,,0.29,WUHU216DAVISVP2,2013-03-16 18:38:00,
2013-03-16 14:43:00,56.8,53.3,29.65,NNE,24,1.5,5.0,88,0.05,,,0.29,WUHU216DAVISVP2,2013-03-16 18:43:00,
2013-03-16 14:49:00,57.4,53.2,29.65,North,359,4.0,13.0,86,0.06,,,0.30,WUHU216DAVISVP2,2013-03-16 18:49:00,
2013-03-16 14:54:00,58.2,53.1,29.66,NW,305,7.0,13.0,83,0.06,,,0.30,WUHU216DAVISVP2,2013-03-16 18:54:00,
2013-03-16 14:59:00,59.1,54.9,29.65,NNE,27,2.0,13.0,86,0.06,,,0.30,WUHU216DAVISVP2,2013-03-16 18:59:00,
2013-03-16 15:04:00,60.0,53.9,29.65,West,263,2.7,13.0,80,0.05,,,0.30,WUHU216DAVISVP2,2013-03-16 19:04:00,
2013-03-16 15:09:00,60.3,54.8,29.65,WSW,248,1.0,11.0,82,0.04,,,0.30,WUHU216DAVISVP2,2013-03-16 19:09:00,
2013-03-16 15:14:00,60.7,54.6,29.65,West,259,3.6,6.0,80,0.04,,,0.30,WUHU216DAVISVP2,2013-03-16 19:14:00,
2013-03-16 15:19:00,61.1,54.9,29.65,WNW,296,3.3,10.0,80,0.03,,,0.30,WUHU216DAVISVP2,2013-03-16 19:19:00,
2013-03-16 15:24:00,61.5,53.9,29.65,WNW,297,7.3,17.0,76,0.03,,,0.30,WUHU216DAVISVP2,2013-03-16 19:24:00,
2013-03-16 15:29:00,61.8,55.3,29.65,WNW,302,3.0,17.0,79,0.03,,,0.30,WUHU216DAVISVP2,2013-03-16 19:29:00,
2013-03-16 15:34:00,62.0,54.7,29.66,WNW,300,3.0,17.0,77,0.02,,,0.30,WUHU216DAVISVP2,2013-03-16 19:34:00,
2013-03-16 15:39:00,62.1,54.9,29.66,NW,305,4.0,17.0,77,0.01,,,0.30,WUHU216DAVISVP2,2013-03-16 19:39:00,
2013-03-16 15:44:00,61.8,53.5,29.66,West,280,3.8,11.0,74,0.01,,,0.30,WUHU216DAVISVP2,2013-03-16 19:44:00,
2013-03-16 15:49:00,61.5,53.6,29.66,WNW,289,4.2,11.0,75,0.00,,,0.30,WUHU216DAVISVP2,2013-03-16 19:49:00,
2013-03-16 15:54:00,61.4,53.9,29.66,WSW,247,1.5,10.0,76,0.00,,,0.30,WUHU216DAVISVP2,2013-03-16 19:54:00,
2013-03-16 15:59:00,61.4,53.9,29.66,WNW,293,2.0,10.0,76,0.00,,,0.30,WUHU216DAVISVP2,2013-03-16 19:59:00,
2013-03-16 16:04:00,61.4,53.5,29.67,WSW,252,4.0,9.0,75,0.00,,,0.30,WUHU216DAVISVP2,2013-03-16 20:04:00,
2013-03-16 16:09:00,61.5,53.6,29.67,West,259,3.2,10.0,75,0.00,,,0.30,WUHU216DAVISVP2,2013-03-16 20:09:00,
2013-03-16 16:14:00,61.5,53.3,29.67,NNW,338,3.0,10.0,74,0.00,,,0.30,WUHU216DAVISVP2,2013-03-16 20:14:00,
2013-03-16 16:19:00,61.8,54.3,29.67,West,266,1.5,10.0,76,0.00,,,0.30,WUHU216DAVISVP2,2013-03-16 20:19:00,
2013-03-16 16:24:00,61.9,53.3,29.67,WNW,291,4.0,12.0,73,0.00,,,0.30,WUHU216DAVISVP2,2013-03-16 20:24:00,
2013-03-16 16:29:00,62.0,53.2,29.67,West,280,5.9,13.0,73,0.00,,,0.30,WUHU216DAVISVP2,2013-03-16 20:29:00,
2013-03-16 16:34:00,62.2,53.2,29.67,North,352,2.1,13.0,72,0.00,,,0.30,WUHU216DAVISVP2,2013-03-16 20:34:00,
2013-03-16 16:39:00,62.4,53.4,29.68,NW,314,4.0,12.0,72,0.00,,,0.30,WUHU216DAVISVP2,2013-03-16 20:39:00,
2013-03-16 16:44:00,62.4,53.8,29.68,WSW,253,3.0,12.0,73,0.00,,,0.30,WUHU216DAVISVP2,2013-03-16 20:44:00,
2013-03-16 16:49:00,62.4,53.0,29.68,WSW,244,1.3,10.0,71,0.00,,,0.30,WUHU216DAVISVP2,2013-03-16 20:49:00,
2013-03-16 16:54:00,62.6,52.7,29.68,WNW,287,6.0,10.0,70,0.00,,,0.30,WUHU216DAVISVP2,2013-03-16 20:54:00,
2013-03-16 16:59:00,62.6,53.2,29.69,WNW,297,6.1,12.0,71,0.00,,,0.30,WUHU216DAVISVP2,2013-03-16 20:59:00,
2013-03-16 17:04:00,62.5,53.1,29.68,West,280,7.0,12.0,71,0.00,,,0.30,WUHU216DAVISVP2,2013-03-16 21:04:00,
2013-03-16 17:09:00,62.5,52.7,29.68,WSW,254,4.4,12.0,70,0.00,,,0.30,WUHU216DAVISVP2,2013-03-16 21:09:00,
2013-03-16 17:14:00,62.5,52.7,29.68,WSW,257,4.3,13.0,70,0.00,,,0.30,WUHU216DAVISVP2,2013-03-16 21:14:00,
2013-03-16 17:19:00,62.5,52.7,29.69,West,276,4.0,13.0,70,0.00,,,0.30,WUHU216DAVISVP2,2013-03-16 21:19:00,
2013-03-16 17:24:00,62.4,52.2,29.69,WNW,290,5.0,12.0,69,0.00,,,0.30,WUHU216DAVISVP2,2013-03-16 21:24:00,
2013-03-16 17:29:00,62.4,52.6,29.69,WSW,240,8.0,12.0,70,0.00,,,0.30,WUHU216DAVISVP2,2013-03-16 21:29:00,
2013-03-16 17:34:00,62.5,52.7,29.69,WSW,255,4.7,11.0,70,0.00,,,0.30,WUHU216DAVISVP2,2013-03-16 21:34:00,
2013-03-16 17:39:00,62.5,52.7,29.69,South,169,8.0,11.0,70,0.00,,,0.30,WUHU216DAVISVP2,2013-03-16 21:39:00,
2013-03-16 17:44:00,62.4,52.2,29.69,West,275,4.4,15.0,69,0.00,,,0.30,WUHU216DAVISVP2,2013-03-16 21:44:00,
2013-03-16 17:49:00,62.4,52.6,29.70,SW,223,5.0,15.0,70,0.00,,,0.30,WUHU216DAVISVP2,2013-03-16 21:49:00,
2013-03-16 17:54:00,62.5,52.2,29.70,WNW,283,3.0,15.0,69,0.00,,,0.30,WUHU216DAVISVP2,2013-03-16 21:54:00,
2013-03-16 17:59:00,62.6,52.3,29.70,WNW,289,1.7,15.0,69,0.00,,,0.30,WUHU216DAVISVP2,2013-03-16 21:59:00,
2013-03-16 18:04:00,62.5,51.9,29.70,WNW,295,7.0,11.0,68,0.00,,,0.30,WUHU216DAVISVP2,2013-03-16 22:04:00,
2013-03-16 18:09:00,62.5,51.5,29.70,WSW,248,3.3,11.0,67,0.00,,,0.30,WUHU216DAVISVP2,2013-03-16 22:09:00,
2013-03-16 18:14:00,62.6,52.4,29.71,West,277,2.1,11.0,69,0.00,,,0.30,WUHU216DAVISVP2,2013-03-16 22:14:00,
2013-03-16 18:19:00,62.6,52.0,29.71,North,5,4.0,10.0,68,0.00,,,0.30,WUHU216DAVISVP2,2013-03-16 22:19:00,
2013-03-16 18:24:00,62.9,50.7,29.70,WNW,293,7.1,14.0,64,0.00,,,0.30,WUHU216DAVISVP2,2013-03-16 22:24:00,
2013-03-16 18:29:00,63.0,50.4,29.71,WSW,243,5.2,14.0,63,0.00,,,0.30,WUHU216DAVISVP2,2013-03-16 22:29:00,
2013-03-16 18:34:00,62.6,50.4,29.71,NNW,344,2.8,14.0,64,0.00,,,0.30,WUHU216DAVISVP2,2013-03-16 22:34:00,
2013-03-16 18:39:00,62.3,50.1,29.72,WNW,297,4.0,14.0,64,0.00,,,0.30,WUHU216DAVISVP2,2013-03-16 22:39:00,
2013-03-16 18:44:00,62.4,49.8,29.72,NW,312,2.2,14.0,63,0.00,,,0.30,WUHU216DAVISVP2,2013-03-16 22:44:00,
2013-03-16 18:49:00,62.0,49.8,29.73,West,280,6.3,14.0,64,0.00,,,0.30,WUHU216DAVISVP2,2013-03-16 22:49:00,
2013-03-16 18:54:00,61.7,49.4,29.73,WSW,257,3.0,14.0,64,0.00,,,0.30,WUHU216DAVISVP2,2013-03-16 22:54:00,
2013-03-16 18:59:00,61.1,49.4,29.74,NW,323,2.2,14.0,65,0.00,,,0.30,WUHU216DAVISVP2,2013-03-16 22:59:00,
2013-03-16 19:04:00,60.8,49.1,29.74,NNE,32,4.0,13.0,65,0.00,,,0.30,WUHU216DAVISVP2,2013-03-16 23:04:00,
2013-03-16 19:09:00,60.5,49.2,29.75,NNW,333,2.2,12.0,66,0.00,,,0.30,WUHU216DAVISVP2,2013-03-16 23:09:00,
2013-03-16 19:14:00,60.1,48.8,29.75,NNW,336,3.6,12.0,66,0.00,,,0.30,WUHU216DAVISVP2,2013-03-16 23:14:00,
2013-03-16 19:19:00,59.4,48.6,29.76,North,3,1.4,8.0,67,0.00,,,0.30,WUHU216DAVISVP2,2013-03-16 23:19:00,
2013-03-16 19:24:00,59.0,48.2,29.77,WNW,295,5.0,8.0,67,0.00,,,0.30,WUHU216DAVISVP2,2013-03-16 23:24:00,
2013-03-16 19:29:00,58.9,48.1,29.77,NW,313,3.0,14.0,67,0.00,,,0.30,WUHU216DAVISVP2,2013-03-16 23:29:00,
2013-03-16 19:34:00,58.4,47.9,29.78,NNE,13,2.4,14.0,68,0.00,,,0.30,WUHU216DAVISVP2,2013-03-16 23:34:00,
2013-03-16 19:39:00,57.7,47.6,29.78,ENE,57,4.0,13.0,69,0.00,,,0.30,WUHU216DAVISVP2,2013-03-16 23:39:00,
2013-03-16 19:44:00,57.4,47.3,29.79,West,269,3.6,13.0,69,0.00,,,0.30,WUHU216DAVISVP2,2013-03-16 23:44:00,
2013-03-16 19:49:00,57.1,47.2,29.79,WNW,294,4.5,10.0,69,0.00,,,0.30,WUHU216DAVISVP2,2013-03-16 23:49:00,
2013-03-16 19:54:00,56.7,47.1,29.80,NW,314,3.0,10.0,70,0.00,,,0.30,WUHU216DAVISVP2,2013-03-16 23:54:00,
2013-03-16 19:59:00,56.6,46.7,29.80,NW,315,7.0,13.0,69,0.00,,,0.30,WUHU216DAVISVP2,2013-03-16 23:59:00,
2013-03-16 20:04:00,56.2,46.2,29.81,NE,56,4.0,13.0,69,0.00,,,0.30,WUHU216DAVISVP2,2013-03-17 00:04:00,
2013-03-16 20:09:00,55.8,46.3,29.81,West,273,3.0,12.0,70,0.00,,,0.30,WUHU216DAVISVP2,2013-03-17 00:09:00,
2013-03-16 20:14:00,55.4,45.9,29.82,West,270,6.0,12.0,70,0.00,,,0.30,WUHU216DAVISVP2,2013-03-17 00:14:00,
2013-03-16 20:19:00,55.4,46.3,29.82,NW,321,1.0,9.0,71,0.00,,,0.30,WUHU216DAVISVP2,2013-03-17 00:19:00,
2013-03-16 20:24:00,54.7,45.6,29.83,North,6,2.3,9.0,71,0.00,,,0.30,WUHU216DAVISVP2,2013-03-17 00:24:00,
2013-03-16 20:29:00,54.5,45.4,29.84,NNE,19,4.6,8.0,71,0.00,,,0.30,WUHU216DAVISVP2,2013-03-17 00:29:00,
2013-03-16 20:34:00,54.3,45.2,29.84,NNE,28,5.3,11.0,71,0.00,,,0.30,WUHU216DAVISVP2,2013-03-17 00:34:00,
2013-03-16 20:39:00,53.9,45.2,29.85,NNW,336,3.8,11.0,72,0.00,,,0.30,WUHU216DAVISVP2,2013-03-17 00:39:00,
2013-03-16 20:44:00,53.7,44.6,29.85,WNW,292,1.5,10.0,71,0.00,,,0.30,WUHU216DAVISVP2,2013-03-17 00:44:00,
2013-03-16 20:49:00,53.4,44.7,29.86,WNW,296,2.6,10.0,72,0.00,,,0.30,WUHU216DAVISVP2,2013-03-17 00:49:00,
2013-03-16 20:54:00,53.2,44.1,29.86,NNE,16,3.5,9.0,71,0.00,,,0.30,WUHU216DAVISVP2,2013-03-17 00:54:00,
2013-03-16 20:59:00,52.8,44.0,29.87,NW,323,2.8,9.0,72,0.00,,,0.30,WUHU216DAVISVP2,2013-03-17 00:59:00,
2013-03-16 21:04:00,52.5,43.7,29.87,North,0,3.1,10.0,72,0.00,,,0.30,WUHU216DAVISVP2,2013-03-17 01:04:00,
2013-03-16 21:09:00,52.2,43.4,29.87,NNW,344,2.3,10.0,72,0.00,,,0.30,WUHU216DAVISVP2,2013-03-17 01:09:00,
2013-03-16 21:14:00,51.9,43.6,29.88,NNW,347,3.1,9.0,73,0.00,,,0.30,WUHU216DAVISVP2,2013-03-17 01:14:00,
2013-03-16 21:19:00,51.7,43.3,29.88,NE,44,6.0,9.0,73,0.00,,,0.30,WUHU216DAVISVP2,2013-03-17 01:19:00,
2013-03-16 21:24:00,51.5,42.9,29.88,NNW,331,3.4,8.0,72,0.00,,,0.30,WUHU216DAVISVP2,2013-03-17 01:24:00,
2013-03-16 21:29:00,51.3,42.6,29.89,North,357,2.4,8.0,72,0.00,,,0.30,WUHU216DAVISVP2,2013-03-17 01:29:00,
2013-03-16 21:34:00,51.0,42.7,29.89,North,352,1.0,8.0,73,0.00,,,0.30,WUHU216DAVISVP2,2013-03-17 01:34:00,
2013-03-16 21:39:00,50.8,42.5,29.89,WNW,294,1.3,8.0,73,0.00,,,0.30,WUHU216DAVISVP2,2013-03-17 01:39:00,
2013-03-16 21:44:00,50.6,42.4,29.90,WNW,299,1.3,4.0,73,0.00,,,0.30,WUHU216DAVISVP2,2013-03-17 01:44:00,
2013-03-16 21:49:00,50.3,42.4,29.90,WNW,288,0.0,4.0,74,0.00,,,0.30,WUHU216DAVISVP2,2013-03-17 01:49:00,
2013-03-16 21:54:00,50.0,42.4,29.90,WNW,294,1.0,3.0,75,0.00,,,0.30,WUHU216DAVISVP2,2013-03-17 01:54:00,
2013-03-16 21:59:00,49.7,41.7,29.90,NE,47,1.2,3.0,74,0.00,,,0.30,WUHU216DAVISVP2,2013-03-17 01:59:00,
2013-03-16 22:04:00,49.5,41.6,29.90,North,8,1.2,5.0,74,0.00,,,0.30,WUHU216DAVISVP2,2013-03-17 02:04:00,
2013-03-16 22:09:00,49.5,42.0,29.90,WNW,287,0.0,5.0,75,0.00,,,0.30,WUHU216DAVISVP2,2013-03-17 02:09:00,
2013-03-16 22:14:00,49.4,41.9,29.91,WNW,287,1.0,4.0,75,0.00,,,0.30,WUHU216DAVISVP2,2013-03-17 02:14:00,
2013-03-16 22:19:00,49.2,41.7,29.91,WNW,287,1.0,2.0,75,0.00,,,0.30,WUHU216DAVISVP2,2013-03-17 02:19:00,
2013-03-16 22:24:00,49.2,41.7,29.91,West,272,3.1,5.0,75,0.00,,,0.30,WUHU216DAVISVP2,2013-03-17 02:24:00,
2013-03-16 22:29:00,49.2,41.7,29.91,WSW,258,1.2,5.0,75,0.00,,,0.30,WUHU216DAVISVP2,2013-03-17 02:29:00,
2013-03-16 22:34:00,49.2,41.3,29.91,West,269,2.0,5.0,74,0.00,,,0.30,WUHU216DAVISVP2,2013-03-17 02:34:00,
2013-03-16 22:39:00,49.1,41.2,29.91,WNW,300,1.3,5.0,74,0.00,,,0.30,WUHU216DAVISVP2,2013-03-17 02:39:00,
2013-03-16 22:44:00,48.9,41.7,29.91,WNW,292,1.0,5.0,76,0.00,,,0.30,WUHU216DAVISVP2,2013-03-17 02:44:00,
2013-03-16 22:49:00,48.7,41.5,29.92,WNW,287,1.0,5.0,76,0.00,,,0.30,WUHU216DAVISVP2,2013-03-17 02:49:00,
2013-03-16 22:54:00,48.3,40.8,29.92,WNW,293,3.0,4.0,75,0.00,,,0.30,WUHU216DAVISVP2,2013-03-17 02:54:00,
2013-03-16 22:59:00,48.4,40.9,29.92,West,260,1.5,5.0,75,0.00,,,0.30,WUHU216DAVISVP2,2013-03-17 02:59:00,
2013-03-16 23:04:00,48.2,40.7,29.92,WNW,290,2.0,5.0,75,0.00,,,0.30,WUHU216DAVISVP2,2013-03-17 03:04:00,
2013-03-16 23:09:00,47.8,40.7,29.92,NW,307,2.0,5.0,76,0.00,,,0.30,WUHU216DAVISVP2,2013-03-17 03:09:00,
2013-03-16 23:14:00,47.7,40.6,29.93,West,264,1.5,5.0,76,0.00,,,0.30,WUHU216DAVISVP2,2013-03-17 03:14:00,
2013-03-16 23:19:00,47.7,40.6,29.93,WNW,293,2.0,4.0,76,0.00,,,0.30,WUHU216DAVISVP2,2013-03-17 03:19:00,
2013-03-16 23:24:00,47.8,40.7,29.93,West,276,1.2,4.0,76,0.00,,,0.30,WUHU216DAVISVP2,2013-03-17 03:24:00,
2013-03-16 23:29:00,47.9,40.7,29.93,WNW,282,1.4,4.0,76,0.00,,,0.30,WUHU216DAVISVP2,2013-03-17 03:29:00,
2013-03-16 23:34:00,47.8,40.9,29.93,West,272,2.0,4.0,77,0.00,,,0.30,WUHU216DAVISVP2,2013-03-17 03:34:00,
2013-03-16 23:39:00,47.5,41.0,29.93,West,273,1.4,4.0,78,0.00,,,0.30,WUHU216DAVISVP2,2013-03-17 03:39:00,
2013-03-16 23:44:00,47.4,40.9,29.94,West,271,1.0,4.0,78,0.00,,,0.30,WUHU216DAVISVP2,2013-03-17 03:44:00,
2013-03-16 23:49:00,47.2,40.7,29.94,West,276,1.0,3.0,78,0.00,,,0.30,WUHU216DAVISVP2,2013-03-17 03:49:00,
2013-03-16 23:54:00,47.1,40.6,29.94,WSW,248,2.1,3.0,78,0.00,,,0.30,WUHU216DAVISVP2,2013-03-17 03:54:00,
2013-03-16 23:59:00,47.0,40.9,29.94,WNW,282,2.0,3.0,79,0.00,,,0.30,WUHU216DAVISVP2,2013-03-17 03:59:00,